Time;durP1;ratioP1;P1;durP2;ratioP2;P2;SDS_P1;SDS_P2;PMS_P1;PMS_P2;Temp;Humidity;BMP_temperature;BMP_pressure;BME280_temperature;BME280_humidity;BME280_pressure;Samples;Min_cycle;Max_cycle;Signal;HPM_P1;HPM_P2
2022/01/23 00:01:26;;;;;;;13.30;4.50;;;;;;;-1.61;79.24;100997.04;104970;1274;72518;-69
2022/01/23 00:04:36;;;;;;;13.40;4.30;;;;;;;-1.61;79.49;100996.19;104366;1276;1002742;-69
2022/01/23 00:07:32;;;;;;;13.10;4.40;;;;;;;-1.64;79.26;100995.36;104123;1278;1003563;-69
2022/01/23 00:10:20;;;;;;;10.80;4.00;;;;;;;-1.64;79.40;100993.44;104909;1274;59316;-69
2022/01/23 00:20:02;;;;;;;10.10;3.30;;;;;;;-1.57;79.57;101002.41;104370;1274;1003185;-69
2022/01/23 00:22:59;;;;;;;10.00;3.30;;;;;;;-1.57;79.12;101006.39;104967;1273;73264;-68
2022/01/23 00:32:08;;;;;;;12.50;3.40;;;;;;;-1.57;79.18;101013.54;104777;1274;72544;-68
2022/01/23 00:35:03;;;;;;;14.70;3.90;;;;;;;-1.57;79.22;101001.53;104926;1274;68145;-67
2022/01/23 00:37:54;;;;;;;11.10;3.60;;;;;;;-1.56;79.23;101000.64;104953;1277;71986;-67
2022/01/23 00:40:48;;;;;;;13.10;3.90;;;;;;;-1.53;78.91;101001.48;104671;1276;59728;-67
2022/01/23 00:43:41;;;;;;;10.20;3.70;;;;;;;-1.52;78.99;101001.29;104936;1274;60315;-67
2022/01/23 00:46:36;;;;;;;12.10;3.90;;;;;;;-1.47;78.91;101005.76;103795;1276;1003637;-67
2022/01/23 00:49:25;;;;;;;12.20;3.70;;;;;;;-1.45;78.74;101006.60;104673;1274;68260;-67
2022/01/23 00:52:18;;;;;;;13.90;4.30;;;;;;;-1.43;78.49;101008.66;104653;1276;72034;-67
2022/01/23 00:55:30;;;;;;;15.70;4.20;;;;;;;-1.44;78.60;101009.38;104442;1276;59355;-67
2022/01/23 00:58:19;;;;;;;11.60;3.80;;;;;;;-1.43;78.55;101007.96;104861;1273;60780;-68
2022/01/23 01:02:07;;;;;;;13.10;3.50;;;;;;;-1.41;78.66;101003.23;104906;1274;72380;-68
2022/01/23 01:04:59;;;;;;;14.30;4.20;;;;;;;-1.40;78.28;101004.27;104255;1282;66943;-68
2022/01/23 01:08:06;;;;;;;13.50;3.60;;;;;;;-1.37;78.76;101001.80;104050;1284;73480;-68
2022/01/23 01:11:27;;;;;;;10.60;3.80;;;;;;;-1.36;78.44;100998.66;104480;1281;59323;-68
2022/01/23 01:32:05;;;;;;;9.40;2.70;;;;;;;-1.12;77.75;101000.59;104307;1282;60884;-69
2022/01/23 01:38:09;;;;;;;10.90;3.20;;;;;;;-1.00;77.44;101011.73;103852;1282;67519;-68
2022/01/23 01:41:04;;;;;;;10.40;3.30;;;;;;;-0.98;77.30;101009.08;103830;1284;72991;-69
2022/01/23 01:43:59;;;;;;;9.30;3.00;;;;;;;-0.93;77.46;101013.38;104363;1277;1002943;-67
2022/01/23 01:47:15;;;;;;;10.60;3.50;;;;;;;-0.90;77.36;101015.59;104619;1274;59314;-68
2022/01/23 01:50:10;;;;;;;10.00;3.00;;;;;;;-0.88;76.97;101014.70;104706;1273;72611;-68
2022/01/23 01:53:02;;;;;;;9.00;3.00;;;;;;;-0.88;76.70;101012.08;104189;1276;1003637;-67
2022/01/23 01:55:55;;;;;;;9.60;3.40;;;;;;;-0.89;76.54;101011.05;104778;1274;73162;-68
2022/01/23 01:59:11;;;;;;;10.70;3.60;;;;;;;-0.90;76.49;101008.27;104970;1274;59400;-67
2022/01/23 02:02:54;;;;;;;9.70;2.80;;;;;;;-0.91;76.30;101005.15;105009;1274;59300;-68
2022/01/23 02:09:28;;;;;;;12.30;3.60;;;;;;;-0.88;76.31;101000.92;104487;1276;66056;-67
2022/01/23 02:56:19;;;;;;;9.10;2.70;;;;;;;-0.72;76.23;101042.49;104470;1274;1016394;-68
2022/01/23 02:59:30;;;;;;;10.20;2.80;;;;;;;-0.72;76.28;101049.13;104556;1277;67332;-69
2022/01/23 03:02:40;;;;;;;8.80;2.80;;;;;;;-0.71;76.24;101053.29;104395;1274;1003686;-68
2022/01/23 03:34:05;;;;;;;28.90;9.50;;;;;;;-0.50;76.55;101022.09;104580;1276;70714;-68
2022/01/23 03:36:57;;;;;;;17.80;5.00;;;;;;;-0.49;76.72;101017.20;104603;1274;59536;-68
2022/01/23 03:40:07;;;;;;;12.70;4.50;;;;;;;-0.48;76.61;101024.19;104525;1276;59300;-68
2022/01/23 03:43:38;;;;;;;11.20;3.30;;;;;;;-0.51;76.68;101027.52;104953;1274;72806;-67
2022/01/23 03:50:01;;;;;;;8.10;2.60;;;;;;;-0.51;76.76;101029.27;104499;1274;71758;-70
2022/01/23 03:53:16;;;;;;;9.70;2.60;;;;;;;-0.49;76.58;101033.77;104865;1276;59320;-69
2022/01/23 03:56:34;;;;;;;8.10;2.60;;;;;;;-0.47;76.73;101036.70;104749;1276;59475;-69
2022/01/23 03:59:23;;;;;;;8.00;2.50;;;;;;;-0.44;76.39;101037.02;105044;1276;70668;-69
2022/01/23 04:02:14;;;;;;;9.00;2.90;;;;;;;-0.43;76.55;101036.64;104707;1277;66256;-69
2022/01/23 04:05:31;;;;;;;8.00;2.50;;;;;;;-0.41;76.44;101040.27;104874;1274;71547;-70
2022/01/23 04:08:22;;;;;;;9.90;2.50;;;;;;;-0.40;76.65;101039.36;104835;1274;59311;-70
2022/01/23 04:11:16;;;;;;;9.80;2.60;;;;;;;-0.40;76.88;101044.95;105005;1274;60747;-69
2022/01/23 04:14:08;;;;;;;41.30;13.30;;;;;;;-0.40;76.57;101051.23;104685;1274;70598;-70
2022/01/23 04:20:43;;;;;;;110.10;31.10;;;;;;;-0.49;76.48;101066.54;104686;1276;70939;-68
2022/01/23 04:46:12;;;;;;;16.40;5.50;;;;;;;-0.44;75.07;101076.58;104550;1275;70816;-68
2022/01/23 05:05:06;;;;;;;11.90;3.50;;;;;;;-0.45;74.02;101101.02;105042;1273;68115;-69
2022/01/23 05:08:17;;;;;;;15.00;4.70;;;;;;;-0.43;73.85;101106.39;105105;1276;71804;-69
2022/01/23 05:11:21;;;;;;;18.00;7.70;;;;;;;-0.39;73.68;101111.02;105428;1273;59399;-71
2022/01/23 05:14:28;;;;;;;16.80;6.90;;;;;;;-0.35;73.50;101113.94;104957;1274;60399;-69
2022/01/23 05:17:18;;;;;;;15.20;5.40;;;;;;;-0.32;73.72;101110.75;105236;1275;70456;-70
2022/01/23 05:20:14;;;;;;;10.40;4.20;;;;;;;-0.29;73.54;101107.74;105290;1273;67922;-70
2022/01/23 05:23:05;;;;;;;8.80;3.30;;;;;;;-0.27;73.66;101115.73;105207;1279;70949;-69
2022/01/23 05:26:20;;;;;;;12.20;3.40;;;;;;;-0.23;73.38;101121.25;104797;1274;59355;-69
2022/01/23 05:29:14;;;;;;;25.80;9.30;;;;;;;-0.21;73.43;101120.52;105145;1274;60501;-69
2022/01/23 05:32:13;;;;;;;34.90;11.40;;;;;;;-0.21;73.09;101117.73;104828;1274;72675;-68
2022/01/23 05:35:03;;;;;;;52.90;18.10;;;;;;;-0.21;73.33;101119.98;105356;1274;66381;-69
2022/01/23 05:37:58;;;;;;;40.50;14.80;;;;;;;-0.20;73.36;101120.68;105084;1274;72222;-69
2022/01/23 05:40:55;;;;;;;30.10;12.40;;;;;;;-0.22;73.41;101113.38;105026;1273;59287;-69
2022/01/23 05:43:44;;;;;;;19.90;9.10;;;;;;;-0.24;73.48;101106.61;104409;1274;1003549;-68
2022/01/23 05:46:33;;;;;;;18.30;7.80;;;;;;;-0.23;73.73;101103.28;105039;1274;73132;-70
2022/01/23 05:49:31;;;;;;;13.40;5.60;;;;;;;-0.23;74.17;101101.71;105524;1273;68048;-67
2022/01/23 05:52:38;;;;;;;10.60;3.40;;;;;;;-0.23;73.82;101107.48;104843;1274;71535;-68
2022/01/23 05:56:02;;;;;;;7.50;2.60;;;;;;;-0.21;74.10;101110.22;105156;1272;59382;-67
2022/01/23 05:59:22;;;;;;;8.10;2.40;;;;;;;-0.17;74.29;101111.02;105315;1273;59298;-68
2022/01/23 06:02:20;;;;;;;8.00;2.80;;;;;;;-0.13;74.48;101109.40;105109;1273;72417;-67
2022/01/23 06:05:12;;;;;;;6.80;2.10;;;;;;;-0.07;74.87;101118.89;105061;1274;68490;-67
2022/01/23 06:08:25;;;;;;;8.10;2.30;;;;;;;-0.03;74.92;101128.42;105220;1274;73395;-67
2022/01/23 06:11:19;;;;;;;6.30;1.80;;;;;;;-0.01;75.09;101135.02;104841;1273;59328;-67
2022/01/23 06:14:09;;;;;;;8.10;2.00;;;;;;;0.00;75.16;101138.15;104513;1274;1002756;-68
2022/01/23 06:17:00;;;;;;;5.80;1.70;;;;;;;0.01;75.07;101140.40;105024;1274;72486;-67
2022/01/23 06:20:12;;;;;;;7.20;1.90;;;;;;;0.02;75.35;101150.84;105050;1274;66941;-69
2022/01/23 06:23:37;;;;;;;6.80;1.90;;;;;;;0.04;75.44;101160.59;105484;1273;73170;-69
2022/01/23 06:26:54;;;;;;;6.00;1.80;;;;;;;0.04;75.51;101165.46;104797;1278;59216;-69
2022/01/23 06:29:50;;;;;;;6.30;1.70;;;;;;;0.06;75.71;101165.11;105080;1275;59690;-70
2022/01/23 06:33:00;;;;;;;7.10;2.00;;;;;;;0.05;75.60;101171.91;105052;1272;72542;-70
2022/01/23 06:37:13;;;;;;;8.00;1.90;;;;;;;0.07;75.73;101172.40;105933;1273;67967;-68
2022/01/23 06:40:28;;;;;;;9.80;3.10;;;;;;;0.10;75.77;101168.85;105329;1274;72960;-69
2022/01/23 06:43:41;;;;;;;10.30;3.60;;;;;;;0.15;75.72;101166.70;105572;1274;59654;-69
2022/01/23 06:46:57;;;;;;;11.70;3.50;;;;;;;0.16;76.03;101161.77;105405;1273;59312;-69
2022/01/23 06:50:12;;;;;;;8.90;3.30;;;;;;;0.18;76.02;101165.24;105063;1274;72525;-69
2022/01/23 06:53:35;;;;;;;9.60;3.00;;;;;;;0.21;76.06;101165.36;104918;1281;68441;-69
2022/01/23 06:56:37;;;;;;;9.60;3.00;;;;;;;0.22;76.12;101156.11;103333;1287;1003132;-69
2022/01/23 06:59:41;;;;;;;9.00;2.80;;;;;;;0.17;75.74;101158.98;103973;1288;59327;-68
2022/01/23 07:03:00;;;;;;;11.80;3.50;;;;;;;0.12;75.84;101154.34;104082;1288;59441;-68
2022/01/23 07:06:25;;;;;;;9.80;3.40;;;;;;;0.07;75.99;101153.73;104264;1287;72179;-68
2022/01/23 07:10:02;;;;;;;11.00;3.30;;;;;;;0.03;76.26;101156.42;104596;1287;66918;-69
2022/01/23 07:13:12;;;;;;;11.10;3.50;;;;;;;-0.02;76.48;101160.85;103281;1288;1003539;-69
2022/01/23 07:16:30;;;;;;;11.00;3.20;;;;;;;-0.03;76.81;101161.23;104248;1288;59302;-69
2022/01/23 07:19:44;;;;;;;10.70;3.10;;;;;;;-0.02;76.93;101174.11;104084;1287;59829;-68
2022/01/23 07:22:40;;;;;;;10.40;3.60;;;;;;;0.04;77.07;101173.15;104364;1287;71514;-69
2022/01/23 07:25:32;;;;;;;10.60;3.40;;;;;;;0.11;77.09;101173.56;104060;1287;66667;-68
2022/01/23 07:28:23;;;;;;;11.20;3.20;;;;;;;0.16;77.20;101179.05;104104;1287;73102;-69
2022/01/23 07:34:25;;;;;;;10.60;3.50;;;;;;;0.26;77.31;101176.43;104558;1274;59226;-68
2022/01/23 07:37:26;;;;;;;10.10;3.40;;;;;;;0.30;77.43;101180.39;105263;1274;73064;-68
2022/01/23 07:40:34;;;;;;;10.10;3.40;;;;;;;0.35;77.37;101185.56;105403;1274;66885;-69
2022/01/23 07:43:26;;;;;;;11.50;3.30;;;;;;;0.38;77.45;101191.95;105245;1274;71238;-69
2022/01/23 07:46:33;;;;;;;12.30;3.80;;;;;;;0.42;77.49;101193.81;105384;1274;59324;-69
2022/01/23 07:50:03;;;;;;;11.20;3.30;;;;;;;0.45;77.41;101196.54;104844;1274;59289;-68
2022/01/23 07:53:19;;;;;;;9.70;3.80;;;;;;;0.45;77.37;101196.02;105606;1273;72074;-68
2022/01/23 07:56:52;;;;;;;12.10;4.20;;;;;;;0.46;77.60;101192.34;105510;1272;67032;-68
2022/01/23 08:00:25;;;;;;;10.40;3.60;;;;;;;0.51;77.63;101209.71;105474;1274;73100;-68
2022/01/23 08:03:28;;;;;;;12.00;3.90;;;;;;;0.56;77.88;101215.23;105342;1274;59327;-68
2022/01/23 08:06:43;;;;;;;12.80;4.10;;;;;;;0.60;77.96;101215.84;105118;1274;59272;-70
2022/01/23 08:10:10;;;;;;;10.20;4.00;;;;;;;0.67;77.94;101218.86;105236;1274;72543;-68
2022/01/23 08:13:20;;;;;;;12.40;3.80;;;;;;;0.69;78.00;101222.33;104980;1274;68081;-69
2022/01/23 08:16:14;;;;;;;13.10;4.60;;;;;;;0.71;78.24;101217.73;105000;1274;73436;-69
2022/01/23 08:23:43;;;;;;;17.30;7.50;;;;;;;0.78;79.04;101225.64;104552;1281;59595;-69
2022/01/23 08:27:05;;;;;;;16.00;6.10;;;;;;;0.82;79.38;101229.77;104278;1281;71610;-71
2022/01/23 08:30:48;;;;;;;18.60;5.80;;;;;;;0.83;79.86;101232.19;104706;1281;66846;-69
2022/01/23 08:34:03;;;;;;;21.50;7.30;;;;;;;0.87;79.89;101238.58;104359;1284;72084;-70
2022/01/23 08:37:36;;;;;;;22.70;8.10;;;;;;;0.94;79.95;101244.04;104626;1284;59448;-71
2022/01/23 08:44:21;;;;;;;20.90;6.40;;;;;;;1.10;80.02;101256.50;104450;1284;71500;-68
2022/01/23 08:47:10;;;;;;;30.20;9.20;;;;;;;1.17;80.09;101256.37;104085;1284;68140;-69
2022/01/23 08:50:03;;;;;;;29.30;9.10;;;;;;;1.21;80.05;101259.79;103904;1284;72844;-70
2022/01/23 08:53:06;;;;;;;25.60;9.20;;;;;;;1.25;80.16;101253.25;104085;1285;59411;-68
2022/01/23 08:56:33;;;;;;;19.20;7.40;;;;;;;1.30;80.31;101261.89;104246;1284;59398;-69
2022/01/23 08:59:44;;;;;;;19.60;6.50;;;;;;;1.33;80.73;101264.27;103769;1287;72489;-70
2022/01/23 09:03:19;;;;;;;16.40;6.10;;;;;;;1.38;81.05;101260.69;103794;1287;68184;-69
2022/01/23 09:06:18;;;;;;;17.50;7.70;;;;;;;1.38;81.56;101262.42;104018;1287;72205;-70
2022/01/23 09:09:37;;;;;;;16.60;6.80;;;;;;;1.38;81.81;101268.02;104014;1286;59234;-71
2022/01/23 09:16:06;;;;;;;19.90;8.30;;;;;;;1.45;82.52;101283.61;104304;1281;72670;-68
2022/01/23 09:19:06;;;;;;;21.30;7.90;;;;;;;1.52;82.59;101281.02;104689;1281;66195;-69
2022/01/23 09:23:37;;;;;;;17.70;7.80;;;;;;;1.60;82.90;101280.52;104721;1281;71724;-69
2022/01/23 09:27:07;;;;;;;17.10;7.90;;;;;;;1.64;83.16;101275.16;103766;1287;59469;-70
2022/01/23 09:30:05;;;;;;;15.50;6.40;;;;;;;1.69;83.15;101272.43;103651;1287;59461;-70
2022/01/23 09:33:37;;;;;;;23.10;8.30;;;;;;;1.77;83.03;101277.18;103491;1290;72846;-70
2022/01/23 09:36:51;;;;;;;22.90;8.40;;;;;;;1.86;83.02;101280.98;102864;1290;1003110;-69
2022/01/23 09:40:22;;;;;;;19.70;8.20;;;;;;;1.92;83.12;101282.27;104099;1287;72956;-71
2022/01/23 09:48:03;;;;;;;23.20;8.50;;;;;;;1.98;84.00;101292.27;103860;1287;61137;-70
2022/01/23 09:50:54;;;;;;;26.00;9.20;;;;;;;2.05;83.92;101293.17;103811;1288;71105;-68
2022/01/23 09:53:47;;;;;;;23.60;9.30;;;;;;;2.17;84.08;101286.27;103823;1288;68714;-71
2022/01/23 09:56:45;;;;;;;24.70;9.60;;;;;;;2.24;83.92;101282.58;104037;1288;71946;-70
2022/01/23 09:59:48;;;;;;;23.50;9.70;;;;;;;2.30;84.08;101281.23;104116;1287;59235;-69
2022/01/23 10:03:15;;;;;;;;;;;;;;;;;;;;;
2022/01/23 10:06:13;;;;;;;25.60;9.90;;;;;;;2.42;84.20;101283.38;104346;1284;69996;-70
2022/01/23 10:09:07;;;;;;;23.30;9.50;;;;;;;2.46;84.19;101290.64;104467;1281;68163;-70
2022/01/23 10:12:03;;;;;;;22.40;8.70;;;;;;;2.49;84.05;101298.27;105038;1281;74195;-69
2022/01/23 10:16:17;;;;;;;24.10;9.30;;;;;;;2.50;83.83;101297.90;105392;1274;59365;-74
2022/01/23 10:20:47;;;;;;;22.20;9.40;;;;;;;2.51;83.82;101290.89;105861;1273;59283;-74
2022/01/23 10:24:22;;;;;;;27.90;9.80;;;;;;;2.54;83.70;101286.23;104691;1274;71065;-69
2022/01/23 10:27:17;;;;;;;22.20;9.70;;;;;;;2.64;83.87;101289.83;104863;1274;68060;-69
2022/01/23 10:30:43;;;;;;;22.90;10.30;;;;;;;2.74;83.74;101297.84;105166;1273;73261;-72
2022/01/23 10:33:39;;;;;;;21.20;9.20;;;;;;;2.80;83.56;101304.52;105137;1273;59278;-69
2022/01/23 10:36:27;;;;;;;24.30;10.30;;;;;;;2.80;83.53;101312.77;104932;1274;60386;-70
2022/01/23 10:39:45;;;;;;;21.50;9.10;;;;;;;2.76;83.58;101327.42;105127;1274;72084;-71
2022/01/23 10:50:13;;;;;;;24.30;11.30;;;;;;;2.49;84.51;101341.21;105306;1273;59271;-72
2022/01/23 10:53:04;;;;;;;25.20;11.70;;;;;;;2.47;84.60;101335.48;104768;1273;61088;-69
2022/01/23 10:56:07;;;;;;;29.10;12.50;;;;;;;2.51;84.46;101332.92;105079;1274;73071;-68
2022/01/23 10:59:10;;;;;;;24.60;10.70;;;;;;;2.63;84.71;101324.23;105170;1273;67074;-69
2022/01/23 11:02:07;;;;;;;22.80;9.80;;;;;;;2.74;84.19;101324.66;105008;1273;73080;-72
2022/01/23 11:05:11;;;;;;;26.20;11.40;;;;;;;2.79;84.24;101329.46;105253;1273;59328;-72
2022/01/23 11:08:00;;;;;;;22.40;9.70;;;;;;;2.82;84.23;101330.76;105238;1273;60700;-70
2022/01/23 11:11:07;;;;;;;22.90;10.30;;;;;;;2.79;84.02;101333.30;105026;1274;71435;-73
2022/01/23 11:17:24;;;;;;;23.00;9.70;;;;;;;2.73;84.38;101330.11;105018;1274;72025;-73
2022/01/23 11:20:12;;;;;;;25.40;11.10;;;;;;;2.71;84.53;101328.23;105153;1274;60897;-70
2022/01/23 11:23:27;;;;;;;27.30;11.30;;;;;;;2.74;84.59;101326.08;105511;1273;59337;-70
2022/01/23 11:26:24;;;;;;;25.80;11.80;;;;;;;2.79;84.60;101327.35;105160;1274;72373;-72
2022/01/23 11:29:17;;;;;;;24.60;10.10;;;;;;;2.71;84.30;101328.41;105336;1274;68406;-71
2022/01/23 11:32:19;;;;;;;24.70;10.20;;;;;;;2.73;84.59;101331.51;105224;1273;73217;-73
2022/01/23 11:35:16;;;;;;;21.80;10.80;;;;;;;2.70;84.61;101330.70;105170;1272;59226;-74
2022/01/23 11:38:14;;;;;;;25.50;11.50;;;;;;;2.63;84.93;101341.92;105388;1274;62393;-73
2022/01/23 11:50:50;;;;;;;26.80;11.80;;;;;;;2.51;85.12;101343.79;105222;1272;59285;-71
2022/01/23 11:53:51;;;;;;;27.20;11.80;;;;;;;2.49;85.40;101345.23;105414;1274;60723;-71
2022/01/23 11:56:44;;;;;;;26.20;12.50;;;;;;;2.47;85.32;101348.10;105318;1273;71307;-71
2022/01/23 12:00:10;;;;;;;30.80;13.10;;;;;;;2.46;85.75;101351.96;105256;1274;66989;-72
2022/01/23 12:03:20;;;;;;;27.50;12.20;;;;;;;2.50;85.95;101355.03;104953;1274;73227;-72
2022/01/23 12:06:15;;;;;;;29.70;13.30;;;;;;;2.55;85.74;101349.80;105025;1275;59303;-72
2022/01/23 12:09:11;;;;;;;23.60;12.10;;;;;;;2.59;85.71;101352.35;105303;1273;60047;-72
2022/01/23 12:12:19;;;;;;;28.00;12.70;;;;;;;2.60;85.63;101353.04;105434;1273;72837;-75
2022/01/23 12:18:32;;;;;;;25.20;13.10;;;;;;;2.55;85.61;101357.01;105322;1273;73026;-74
2022/01/23 12:21:31;;;;;;;27.00;14.50;;;;;;;2.48;85.91;101362.77;105215;1274;59307;-74
2022/01/23 12:24:25;;;;;;;30.30;15.00;;;;;;;2.43;86.23;101362.19;105170;1274;59302;-75
2022/01/23 12:27:29;;;;;;;28.40;14.20;;;;;;;2.43;86.42;101357.46;105400;1273;72499;-75
2022/01/23 12:30:22;;;;;;;29.70;13.90;;;;;;;2.46;86.49;101356.52;105430;1273;68908;-76
2022/01/23 12:33:56;;;;;;;27.00;12.40;;;;;;;2.50;86.62;101358.52;105114;1272;72866;-74
2022/01/23 12:36:54;;;;;;;24.60;12.60;;;;;;;2.51;86.44;101356.41;105299;1274;59309;-75
2022/01/23 12:39:43;;;;;;;25.80;12.00;;;;;;;2.55;86.40;101360.33;105276;1273;59319;-75
2022/01/23 12:43:21;;;;;;;28.00;12.70;;;;;;;2.56;86.17;101361.90;105321;1273;72425;-76
2022/01/23 12:46:23;;;;;;;33.20;14.40;;;;;;;2.47;86.51;101370.17;105241;1274;66896;-74
2022/01/23 12:49:22;;;;;;;25.80;11.80;;;;;;;2.42;86.58;101368.71;105337;1274;72792;-75
2022/01/23 12:52:10;;;;;;;27.80;13.30;;;;;;;2.38;86.50;101371.42;104964;1274;59544;-76
2022/01/23 12:55:00;;;;;;;28.60;14.30;;;;;;;2.29;86.84;101366.55;105261;1273;59351;-75
2022/01/23 12:57:49;;;;;;;31.00;15.80;;;;;;;2.23;86.87;101364.92;105485;1274;72445;-74
2022/01/23 13:00:39;;;;;;;35.10;15.80;;;;;;;2.24;87.23;101370.34;105649;1274;67902;-71
2022/01/23 13:03:28;;;;;;;32.30;15.90;;;;;;;2.28;87.07;101370.61;105579;1272;71795;-72
2022/01/23 13:06:17;;;;;;;34.30;15.80;;;;;;;2.31;87.18;101377.70;104986;1274;59325;-71
2022/01/23 13:26:29;;;;;;;33.20;15.20;;;;;;;1.94;88.28;101376.93;105357;1273;60769;-73
2022/01/23 13:35:12;;;;;;;35.80;14.70;;;;;;;1.94;88.39;101368.36;104983;1273;71941;-72
2022/01/23 13:38:15;;;;;;;29.20;13.50;;;;;;;1.93;88.55;101369.41;104974;1273;59301;-78
2022/01/23 13:41:25;;;;;;;32.30;14.10;;;;;;;1.94;88.59;101366.44;105100;1273;59298;-75
2022/01/23 13:57:38;;;;;;;40.70;17.30;;;;;;;1.80;89.03;101363.20;105310;1273;59387;-72
2022/01/23 13:57:42;;;;;;;41.20;18.20;;;;;;;1.77;89.17;101363.27;105341;1273;59222;-71
2022/01/23 14:00:33;;;;;;;43.00;17.70;;;;;;;1.79;89.55;101365.69;104922;1273;70159;-73
2022/01/23 14:03:28;;;;;;;41.50;17.60;;;;;;;1.78;89.48;101366.23;105271;1274;67144;-75
2022/01/23 14:06:18;;;;;;;41.00;18.50;;;;;;;1.78;89.39;101368.85;105189;1273;71644;-75
2022/01/23 14:09:12;;;;;;;42.90;18.30;;;;;;;1.73;89.92;101369.48;104863;1273;59420;-76
2022/01/23 14:12:10;;;;;;;41.90;17.30;;;;;;;1.68;89.80;101372.73;105632;1273;60836;-76
2022/01/23 14:15:21;;;;;;;41.90;18.00;;;;;;;1.65;89.96;101372.95;105427;1274;71270;-77
2022/01/23 14:18:30;;;;;;;42.30;19.00;;;;;;;1.61;90.32;101374.44;105303;1273;68049;-72
2022/01/23 14:21:22;;;;;;;45.50;20.10;;;;;;;1.56;90.67;101375.05;105081;1273;1003696;-72
2022/01/23 14:24:37;;;;;;;50.70;21.80;;;;;;;1.53;90.68;101379.66;105380;1273;59417;-71
2022/01/23 14:27:43;;;;;;;47.40;21.30;;;;;;;1.53;90.83;101383.69;105467;1273;59378;-74
2022/01/23 14:31:00;;;;;;;53.00;23.30;;;;;;;1.57;90.89;101381.17;105136;1273;71217;-74
2022/01/23 14:34:03;;;;;;;55.90;23.90;;;;;;;1.58;90.82;101378.52;105471;1273;67764;-75
2022/01/23 14:37:25;;;;;;;56.20;23.40;;;;;;;1.58;90.74;101378.70;105266;1273;70707;-73
2022/01/23 14:40:36;;;;;;;44.20;20.00;;;;;;;1.58;90.89;101377.83;105489;1273;59529;-76
2022/01/23 14:43:42;;;;;;;42.10;17.50;;;;;;;1.53;91.00;101377.74;104869;1273;60889;-73
2022/01/23 14:46:38;;;;;;;46.60;20.40;;;;;;;1.52;91.08;101383.36;104480;1273;1003085;-72
2022/01/23 14:49:31;;;;;;;43.50;19.30;;;;;;;1.49;90.94;101381.15;104736;1274;68780;-73
2022/01/23 14:52:19;;;;;;;42.40;17.80;;;;;;;1.46;91.09;101383.13;104982;1274;71399;-71
2022/01/23 14:55:12;;;;;;;47.90;20.60;;;;;;;1.43;91.36;101390.01;105077;1273;59460;-70
2022/01/23 14:58:04;;;;;;;44.30;20.20;;;;;;;1.41;91.23;101395.98;105367;1273;60364;-70
2022/01/23 15:01:10;;;;;;;47.60;19.00;;;;;;;1.41;91.66;101393.70;105292;1273;71057;-70
2022/01/23 15:04:07;;;;;;;43.50;20.20;;;;;;;1.41;91.54;101400.52;105244;1273;65926;-71
2022/01/23 15:07:16;;;;;;;43.90;20.60;;;;;;;1.42;91.54;101405.41;105729;1273;73173;-71
2022/01/23 15:10:07;;;;;;;44.60;20.10;;;;;;;1.45;91.47;101415.15;105074;1273;59415;-71
2022/01/23 15:12:55;;;;;;;44.20;19.40;;;;;;;1.48;91.44;101412.13;105478;1272;60608;-72
2022/01/23 15:15:43;;;;;;;41.50;18.40;;;;;;;1.47;91.53;101414.41;105640;1274;72460;-72
2022/01/23 15:18:33;;;;;;;41.90;19.10;;;;;;;1.45;91.70;101418.13;105433;1273;66696;-74
2022/01/23 15:21:21;;;;;;;43.50;19.30;;;;;;;1.39;91.87;101424.88;105099;1273;72833;-73
2022/01/23 15:24:11;;;;;;;40.70;19.70;;;;;;;1.34;92.14;101424.97;105299;1273;59349;-71
2022/01/23 15:26:59;;;;;;;45.80;21.40;;;;;;;1.30;92.52;101428.19;105376;1274;59316;-73
2022/01/23 15:29:47;;;;;;;45.20;20.60;;;;;;;1.23;93.24;101429.70;105232;1273;72511;-75
2022/01/23 15:32:35;;;;;;;47.60;21.10;;;;;;;1.17;93.86;101424.55;104983;1272;67042;-75
2022/01/23 15:35:30;;;;;;;45.50;20.20;;;;;;;1.13;93.93;101429.52;105126;1274;73826;-76
2022/01/23 15:38:21;;;;;;;47.10;21.30;;;;;;;1.10;94.05;101431.66;105575;1273;59394;-69
2022/01/23 15:41:10;;;;;;;49.80;22.80;;;;;;;1.07;94.19;101432.42;105295;1272;60376;-70
2022/01/23 15:44:05;;;;;;;53.90;24.00;;;;;;;1.05;94.25;101426.86;105168;1274;72636;-75
2022/01/23 15:46:55;;;;;;;54.70;25.20;;;;;;;1.05;94.48;101428.61;105525;1274;67327;-71
2022/01/23 15:49:44;;;;;;;47.60;21.30;;;;;;;1.02;94.82;101431.98;105353;1274;71495;-72
2022/01/23 15:52:31;;;;;;;52.80;22.20;;;;;;;1.00;94.66;101432.70;105018;1274;59519;-75
2022/01/23 15:55:20;;;;;;;42.50;21.00;;;;;;;0.96;95.12;101431.53;105476;1274;60641;-73
2022/01/23 15:58:09;;;;;;;47.40;20.00;;;;;;;0.89;95.69;101428.15;105430;1273;72620;-72
2022/01/23 16:01:02;;;;;;;48.10;20.70;;;;;;;0.84;95.95;101422.99;104875;1273;67063;-71
2022/01/23 16:03:52;;;;;;;44.70;21.50;;;;;;;0.81;96.31;101424.45;105264;1274;72193;-70
2022/01/23 16:06:42;;;;;;;51.20;23.40;;;;;;;0.83;97.18;101426.52;105005;1273;59304;-70
2022/01/23 16:09:35;;;;;;;47.60;21.40;;;;;;;0.86;97.58;101425.23;104941;1273;60439;-70
2022/01/23 16:12:41;;;;;;;45.70;20.50;;;;;;;0.93;97.47;101426.17;105191;1273;70353;-72
2022/01/23 16:15:32;;;;;;;47.10;21.00;;;;;;;0.92;96.58;101418.68;105120;1273;66020;-73
2022/01/23 16:18:26;;;;;;;42.80;21.00;;;;;;;0.91;96.23;101416.79;104954;1273;73392;-77
2022/01/23 16:21:19;;;;;;;54.10;22.00;;;;;;;0.89;96.45;101416.63;105286;1274;59339;-76
2022/01/23 16:24:07;;;;;;;50.80;21.60;;;;;;;0.85;96.36;101421.58;105388;1274;59412;-75
2022/01/23 16:26:59;;;;;;;50.60;21.80;;;;;;;0.82;96.63;101423.56;105590;1273;72525;-73
2022/01/23 16:29:48;;;;;;;45.10;21.80;;;;;;;0.81;96.61;101424.78;105299;1274;66895;-70
2022/01/23 16:32:39;;;;;;;39.00;18.20;;;;;;;0.81;96.52;101430.71;105311;1272;73517;-70
2022/01/23 16:35:27;;;;;;;40.40;18.70;;;;;;;0.82;96.61;101440.50;105770;1273;59651;-70
2022/01/23 16:38:18;;;;;;;37.70;15.80;;;;;;;0.87;96.85;101445.30;105262;1273;60712;-71
2022/01/23 16:41:07;;;;;;;39.40;17.30;;;;;;;0.87;97.10;101437.79;105012;1273;72654;-71
2022/01/23 16:43:55;;;;;;;39.40;17.10;;;;;;;0.92;96.96;101445.41;105169;1273;68101;-69
2022/01/23 16:47:17;;;;;;;36.50;15.00;;;;;;;0.97;96.71;101449.52;105544;1273;72883;-74
2022/01/23 16:51:43;;;;;;;34.10;15.40;;;;;;;1.06;96.40;101453.08;105656;1274;59632;-71
2022/01/23 16:54:37;;;;;;;35.40;15.20;;;;;;;1.10;96.23;101454.38;105253;1279;60507;-75
2022/01/23 16:57:42;;;;;;;32.40;14.70;;;;;;;1.14;96.28;101453.11;104371;1279;72327;-75
2022/01/23 17:00:57;;;;;;;33.00;15.30;;;;;;;1.14;96.18;101452.58;104303;1281;67193;-74
2022/01/23 17:03:53;;;;;;;35.90;15.40;;;;;;;1.16;96.12;101454.13;105138;1279;73340;-73
2022/01/23 17:06:47;;;;;;;41.80;16.80;;;;;;;1.17;96.07;101450.79;104665;1279;59523;-74
2022/01/23 17:09:42;;;;;;;34.40;15.60;;;;;;;1.17;96.14;101449.04;104681;1279;60644;-74
2022/01/23 17:12:31;;;;;;;29.10;14.00;;;;;;;1.16;96.12;101446.96;104466;1281;71028;-73
2022/01/23 17:15:19;;;;;;;32.50;15.30;;;;;;;1.12;96.36;101439.32;104360;1280;68246;-74
2022/01/23 17:18:43;;;;;;;34.80;16.40;;;;;;;1.12;96.45;101438.80;104573;1281;73285;-73
2022/01/23 17:22:03;;;;;;;35.30;16.20;;;;;;;1.13;96.65;101444.20;104872;1281;59198;-73
2022/01/23 17:24:52;;;;;;;31.80;15.50;;;;;;;1.13;96.43;101444.20;104508;1281;59434;-74
2022/01/23 17:28:33;;;;;;;34.70;16.70;;;;;;;1.15;96.49;101445.74;104973;1279;72404;-74
2022/01/23 17:32:38;;;;;;;39.00;18.40;;;;;;;1.14;96.41;101444.18;104696;1285;68086;-72
2022/01/23 17:36:50;;;;;;;41.10;18.10;;;;;;;1.06;96.79;101435.25;104251;1285;73022;-72
2022/01/23 17:39:50;;;;;;;39.90;18.30;;;;;;;1.01;97.32;101441.77;103014;1300;59272;-73
2022/01/23 17:42:43;;;;;;;40.20;19.30;;;;;;;0.96;97.50;101445.00;102962;1300;59597;-73
2022/01/23 17:45:53;;;;;;;41.10;19.60;;;;;;;0.93;97.94;101452.23;102990;1300;72722;-74
2022/01/23 17:48:50;;;;;;;42.10;19.50;;;;;;;0.92;97.67;101454.67;102934;1300;67226;-74
2022/01/23 17:52:02;;;;;;;44.60;20.10;;;;;;;0.96;97.70;101456.70;102832;1300;71441;-73